createdAt,value
2018-11-13T00:01:15.907Z,86.7
2018-11-13T00:11:19.623Z,86.4
2018-11-13T00:21:23.426Z,86.5
2018-11-13T00:31:27.153Z,86.7
2018-11-13T00:41:30.804Z,87.1
2018-11-13T00:51:34.387Z,89
2018-11-13T01:01:37.981Z,89
2018-11-13T01:11:41.747Z,87.2
2018-11-13T01:21:45.387Z,86.9
2018-11-13T01:31:49.117Z,87.6
2018-11-13T01:41:52.776Z,88.7
2018-11-13T01:51:56.340Z,90.4
2018-11-13T02:01:59.933Z,90.9
2018-11-13T02:12:03.578Z,89
2018-11-13T02:22:07.294Z,89.7
2018-11-13T02:32:10.934Z,89.6
2018-11-13T02:42:14.579Z,89.3
2018-11-13T02:52:18.219Z,88.4
2018-11-13T03:02:21.835Z,88.9
2018-11-13T03:12:25.441Z,87.5
2018-11-13T03:22:29.191Z,87.1
2018-11-13T03:32:32.947Z,86.7
2018-11-13T03:42:36.572Z,87.2
2018-11-13T03:52:40.388Z,86.9
2018-11-13T04:02:44.069Z,86.8
2018-11-13T04:12:47.730Z,87.1
2018-11-13T04:22:51.392Z,87.6
2018-11-13T04:32:55.140Z,88.8
2018-11-13T04:42:58.835Z,86.8
2018-11-13T04:53:02.557Z,86.5
2018-11-13T05:03:06.507Z,85.9
2018-11-13T05:13:10.563Z,86.6
2018-11-13T07:15:55.829Z,90.4
2018-11-13T07:25:59.622Z,90.5
2018-11-13T07:36:03.239Z,90.5
2018-11-13T07:46:06.835Z,90
2018-11-13T07:56:10.536Z,89.6
2018-11-13T08:06:14.543Z,88.9
2018-11-13T08:16:18.635Z,88.7
2018-11-13T08:26:22.556Z,88.1
2018-11-13T08:36:26.689Z,87.2
2018-11-13T08:46:30.323Z,87
2018-11-13T08:56:34.048Z,87.4
2018-11-13T09:06:37.702Z,87.1
2018-11-13T09:16:41.276Z,86.6
2018-11-13T09:26:44.884Z,87.1
2018-11-13T09:36:48.764Z,87.6
2018-11-13T09:46:52.434Z,88.1
2018-11-13T09:56:56.063Z,87.8
2018-11-13T10:06:59.949Z,86.7
2018-11-13T10:17:04.152Z,86.5
2018-11-13T10:27:08.025Z,86.5
2018-11-13T10:37:11.982Z,87.1
2018-11-13T10:47:15.631Z,87.9
2018-11-13T10:57:19.344Z,88.1
2018-11-13T11:07:22.981Z,87.7
2018-11-13T11:17:26.716Z,87.8
2018-11-13T11:27:30.398Z,88.2
2018-11-13T11:37:34.023Z,88.6
2018-11-13T11:47:37.833Z,88.7
2018-11-13T11:57:41.422Z,88.3
2018-11-13T12:07:45.157Z,86.6
2018-11-13T12:17:48.822Z,83.9
2018-11-13T12:27:52.421Z,83.3
2018-11-13T12:37:56.217Z,83.4
2018-11-13T12:47:59.841Z,83.2
2018-11-13T12:58:03.550Z,84.6
2018-11-13T13:08:07.184Z,84.2
2018-11-13T13:18:10.947Z,83.6
2018-11-13T13:28:14.583Z,82.8
2018-11-13T13:38:18.368Z,83
2018-11-13T13:48:22.019Z,65.4
2018-11-13T13:58:25.710Z,59.4
2018-11-13T14:08:30.942Z,59
2018-11-13T14:18:34.657Z,58.7
2018-11-13T14:28:38.236Z,58.9
2018-11-13T14:38:41.851Z,58.9
2018-11-13T14:48:45.412Z,59.4
2018-11-13T14:58:49.132Z,59.4
2018-11-13T15:08:52.753Z,60.1
2018-11-13T15:18:56.293Z,59.2
2018-11-13T15:28:59.950Z,59.1
2018-11-13T15:39:03.608Z,59.2
2018-11-13T15:49:07.140Z,58.8
2018-11-13T15:59:10.984Z,58.8
2018-11-13T16:09:15.103Z,58.6
2018-11-13T16:19:18.638Z,58.6
2018-11-13T16:29:22.183Z,58.6
2018-11-13T16:39:25.906Z,58.3
2018-11-13T16:49:29.582Z,58.2
2018-11-13T16:59:33.136Z,58.1
2018-11-13T17:09:36.739Z,58
2018-11-13T17:19:40.459Z,58
2018-11-13T17:29:44.287Z,57.8
2018-11-13T17:39:48.048Z,57.8
2018-11-13T17:49:51.711Z,57.7
2018-11-13T17:59:55.556Z,57.5
2018-11-13T18:09:59.174Z,57.4
2018-11-13T18:20:02.851Z,57.4
2018-11-13T18:30:06.381Z,56.7
2018-11-13T18:40:10.066Z,56.8
2018-11-13T18:50:13.848Z,56.7
2018-11-13T19:00:17.792Z,56.5
2018-11-13T19:10:21.427Z,56.3
2018-11-13T19:20:25.461Z,56.3
2018-11-13T19:30:29.508Z,56.1
2018-11-13T19:40:33.433Z,56
2018-11-13T19:50:37.042Z,55.9
2018-11-13T20:00:40.747Z,55.8
2018-11-13T20:10:44.407Z,55.7
2018-11-13T20:20:48.080Z,55.6
2018-11-13T20:30:51.816Z,55.5
2018-11-13T20:40:55.711Z,55.4
2018-11-13T20:50:59.264Z,55.3
2018-11-13T21:01:02.910Z,55.3
2018-11-13T21:11:06.674Z,55.1
2018-11-13T21:21:10.457Z,55.1
2018-11-13T21:31:14.102Z,55
2018-11-13T21:41:17.645Z,54.9
2018-11-13T21:51:51.426Z,54.8
2018-11-13T22:01:55.059Z,54.7
2018-11-13T22:11:58.642Z,54.7
2018-11-13T22:22:02.349Z,54.7
2018-11-13T22:32:05.951Z,54.6
2018-11-13T22:42:09.606Z,54.5
2018-11-13T22:52:13.133Z,54.5
2018-11-13T23:02:16.911Z,54.4
2018-11-13T23:12:20.820Z,54.4
2018-11-13T23:22:24.485Z,54.4
2018-11-13T23:32:28.098Z,54.4
2018-11-13T23:42:31.640Z,54.3
2018-11-13T23:52:35.239Z,54.2
